createdAt,value
2023-02-01T00:01:11.825Z,92.70
2023-02-01T00:03:39.545Z,92.69
2023-02-01T00:06:07.170Z,92.58
2023-02-01T00:08:36.074Z,92.69
2023-02-01T00:11:06.507Z,92.51
2023-02-01T00:13:36.454Z,92.62
2023-02-01T00:16:09.368Z,92.72
2023-02-01T00:18:37.458Z,92.77
2023-02-01T00:21:05.778Z,92.80
2023-02-01T00:23:35.454Z,92.74
2023-02-01T00:26:05.287Z,92.65
2023-02-01T00:28:34.407Z,92.61
2023-02-01T00:31:04.866Z,92.38
2023-02-01T00:33:33.968Z,92.34
2023-02-01T00:36:07.202Z,92.13
2023-02-01T00:38:38.329Z,91.82
2023-02-01T00:41:18.544Z,91.71
2023-02-01T00:43:46.942Z,91.34
2023-02-01T00:46:16.802Z,91.00
2023-02-01T00:48:45.520Z,90.89
2023-02-01T00:51:16.876Z,90.52
2023-02-01T00:53:45.153Z,90.60
2023-02-01T00:56:13.893Z,90.52
2023-02-01T00:58:45.196Z,90.47
2023-02-01T06:22:44.001Z,82.34
2023-02-01T06:25:12.168Z,82.31
2023-02-01T06:27:39.947Z,82.43
2023-02-01T06:30:11.120Z,82.34
2023-02-01T06:32:40.402Z,82.19
2023-02-01T06:35:12.319Z,82.13
2023-02-01T06:37:40.205Z,82.15
2023-02-01T06:40:09.741Z,82.10
2023-02-01T06:42:37.576Z,81.77
2023-02-01T06:45:07.774Z,81.91
2023-02-01T06:47:35.658Z,81.77
2023-02-01T06:50:04.215Z,81.66
2023-02-01T06:52:32.006Z,81.54
2023-02-01T06:54:59.870Z,81.76
2023-02-01T06:57:31.566Z,81.76
2023-02-01T06:59:59.796Z,81.57
2023-02-01T07:02:27.562Z,81.47
2023-02-01T07:04:55.630Z,81.49
2023-02-01T07:07:23.840Z,81.56
2023-02-01T07:09:51.785Z,81.39
2023-02-01T07:12:20.484Z,81.31
2023-02-01T07:14:48.327Z,81.44
2023-02-01T07:17:16.184Z,81.15
2023-02-01T07:19:44.051Z,81.23
2023-02-01T07:22:11.924Z,81.11
2023-02-01T07:24:39.781Z,81.17
2023-02-01T07:27:07.649Z,80.82
2023-02-01T07:29:35.718Z,80.64
2023-02-01T07:32:03.591Z,80.58
2023-02-01T07:34:35.130Z,80.40
2023-02-01T07:37:04.035Z,80.10
2023-02-01T07:39:33.059Z,80.11
2023-02-01T07:42:01.115Z,80.12
2023-02-01T07:44:28.855Z,79.59
2023-02-01T07:46:56.715Z,79.81
2023-02-01T07:49:24.425Z,79.44
2023-02-01T07:51:52.455Z,79.54
2023-02-01T07:54:20.413Z,79.27
2023-02-01T07:56:48.181Z,79.28
2023-02-01T07:59:17.037Z,79.16
2023-02-01T08:01:44.880Z,79.08
2023-02-01T08:04:14.041Z,79.25
2023-02-01T08:06:41.780Z,79.23
2023-02-01T08:09:11.605Z,78.95
2023-02-01T08:11:39.702Z,78.78
2023-02-01T08:14:07.786Z,78.39
2023-02-01T08:16:37.581Z,78.58
2023-02-01T08:19:05.414Z,78.67
2023-02-01T08:21:39.128Z,78.28
2023-02-01T08:24:09.239Z,78.63
2023-02-01T08:26:37.271Z,78.58
2023-02-01T08:29:06.907Z,78.13
2023-02-01T08:31:35.200Z,78.66
2023-02-01T08:34:05.399Z,78.47
2023-02-01T08:36:33.287Z,78.46
2023-02-01T08:39:02.168Z,78.14
2023-02-01T08:41:31.373Z,78.22
2023-02-01T08:43:59.405Z,78.07
2023-02-01T08:46:27.456Z,77.93
2023-02-01T08:48:55.594Z,77.97
2023-02-01T08:51:24.474Z,76.77
2023-02-01T08:53:52.979Z,76.76
2023-02-01T08:56:20.919Z,76.87
2023-02-01T08:58:48.834Z,76.70
2023-02-01T09:01:18.575Z,75.88
2023-02-01T09:03:47.050Z,76.09
2023-02-01T09:06:17.007Z,76.14
2023-02-01T09:08:45.485Z,76.08
2023-02-01T09:11:16.403Z,76.03
2023-02-01T09:13:45.233Z,76.18
2023-02-01T09:16:13.659Z,75.53
2023-02-01T09:18:50.760Z,75.80
2023-02-01T09:21:30.543Z,75.78
2023-02-01T09:23:58.691Z,76.12
2023-02-01T09:26:32.021Z,76.08
2023-02-01T09:29:01.732Z,75.83
2023-02-01T09:31:30.676Z,75.96
2023-02-01T09:33:58.754Z,75.31
2023-02-01T09:36:26.811Z,75.21
2023-02-01T09:38:54.868Z,75.95
2023-02-01T09:41:47.465Z,75.75
2023-02-01T09:44:44.272Z,75.57
2023-02-01T09:47:23.503Z,75.55
2023-02-01T09:50:01.300Z,75.30
2023-02-01T09:52:32.545Z,75.82
2023-02-01T09:55:06.152Z,75.80
2023-02-01T09:57:54.965Z,75.27
2023-02-01T10:00:34.765Z,74.95
2023-02-01T10:03:03.432Z,75.01
2023-02-01T10:06:07.455Z,74.92
2023-02-01T10:09:01.457Z,75.16
2023-02-01T10:11:52.226Z,75.13
2023-02-01T10:14:52.756Z,74.89
2023-02-01T10:17:29.427Z,75.22
2023-02-01T10:20:29.956Z,74.78
2023-02-01T10:23:19.435Z,74.25
2023-02-01T10:25:56.931Z,74.83
2023-02-01T10:28:27.261Z,75.13
2023-02-01T10:30:59.656Z,75.13
2023-02-01T10:33:46.124Z,74.59
2023-02-01T10:36:41.726Z,74.75
2023-02-01T10:39:14.772Z,75.07
2023-02-01T10:41:46.576Z,74.98
2023-02-01T10:44:18.536Z,75.26
2023-02-01T10:46:46.778Z,74.99
2023-02-01T10:49:23.893Z,75.23
2023-02-01T10:52:03.782Z,75.31
2023-02-01T10:54:39.394Z,75.77
2023-02-01T10:57:21.713Z,76.15
2023-02-01T10:59:49.485Z,76.13
2023-02-01T11:02:29.466Z,76.36
2023-02-01T11:05:10.612Z,76.10
2023-02-01T11:07:40.931Z,76.47
2023-02-01T11:10:42.225Z,76.57
2023-02-01T11:13:19.205Z,76.74
2023-02-01T11:15:57.045Z,76.48
2023-02-01T11:18:31.357Z,76.48
2023-02-01T11:21:00.937Z,76.82
2023-02-01T11:23:31.795Z,77.00
2023-02-01T11:26:02.344Z,77.03
2023-02-01T11:28:35.939Z,76.78
2023-02-01T11:31:10.014Z,76.93
2023-02-01T11:33:44.147Z,76.77
2023-02-01T11:36:17.710Z,76.89
2023-02-01T11:39:11.860Z,76.92
2023-02-01T11:41:59.634Z,76.65
2023-02-01T11:44:34.602Z,76.45
2023-02-01T11:47:29.099Z,76.52
2023-02-01T11:50:00.336Z,76.33
2023-02-01T11:52:28.169Z,76.51
2023-02-01T11:54:59.124Z,76.39
2023-02-01T11:57:33.209Z,76.63
2023-02-01T12:00:04.943Z,76.59
2023-02-01T12:02:48.400Z,76.13
2023-02-01T12:05:25.883Z,76.36
2023-02-01T12:08:08.192Z,76.59
2023-02-01T12:10:53.505Z,76.88
2023-02-01T12:13:27.610Z,76.94
2023-02-01T12:16:07.289Z,76.69
2023-02-01T12:19:00.317Z,76.61
2023-02-01T12:21:33.921Z,76.96
2023-02-01T12:24:29.682Z,77.26
2023-02-01T12:27:06.312Z,77.09
2023-02-01T12:29:53.131Z,77.40
2023-02-01T12:32:44.105Z,77.53
2023-02-01T12:35:11.881Z,78.20
2023-02-01T12:38:15.468Z,78.35
2023-02-01T12:41:07.717Z,78.74
2023-02-01T12:43:53.297Z,79.07
2023-02-01T12:46:29.048Z,78.99
2023-02-01T12:49:03.775Z,79.10
2023-02-01T12:51:39.328Z,78.75
2023-02-01T12:54:28.178Z,78.84
2023-02-01T12:57:03.124Z,79.10
2023-02-01T12:59:37.338Z,79.43
2023-02-01T13:02:19.739Z,79.58
2023-02-01T13:05:04.484Z,80.02
2023-02-01T13:08:00.410Z,80.15
2023-02-01T13:10:52.273Z,80.99
2023-02-01T13:13:40.295Z,81.48
2023-02-01T13:16:33.918Z,82.20
2023-02-01T13:19:37.602Z,82.14
2023-02-01T13:22:14.276Z,82.37
2023-02-01T13:24:57.401Z,82.53
2023-02-01T13:27:31.314Z,82.53
2023-02-01T13:30:15.745Z,82.96
2023-02-01T13:33:53.692Z,83.12
2023-02-01T13:35:50.765Z,83.26
2023-02-01T13:39:04.111Z,83.38
2023-02-01T13:41:52.717Z,83.66
2023-02-01T13:44:35.497Z,83.91
2023-02-01T13:47:10.698Z,83.27
2023-02-01T13:49:42.271Z,83.68
2023-02-01T13:52:25.177Z,84.24
2023-02-01T13:55:02.568Z,83.93
2023-02-01T13:57:40.769Z,83.65
2023-02-01T14:00:27.677Z,83.76
2023-02-01T14:03:02.025Z,83.88
2023-02-01T14:05:29.931Z,83.74
2023-02-01T14:08:06.956Z,83.60
2023-02-01T14:10:56.839Z,83.68
2023-02-01T14:13:38.010Z,83.38
2023-02-01T14:16:06.827Z,83.19
2023-02-01T14:18:34.716Z,82.85
2023-02-01T14:21:30.770Z,82.93
2023-02-01T14:24:00.355Z,82.52
2023-02-01T14:26:50.589Z,82.13
2023-02-01T14:29:22.052Z,82.13
2023-02-01T14:32:23.996Z,81.99
2023-02-01T14:34:58.186Z,81.55
2023-02-01T14:37:33.954Z,81.52
2023-02-01T14:43:31.980Z,81.52
2023-02-01T14:45:59.479Z,81.51
2023-02-01T14:48:43.374Z,81.38
2023-02-01T14:51:17.549Z,81.64
2023-02-01T14:53:47.888Z,81.74
2023-02-01T14:56:21.483Z,81.55
2023-02-01T14:59:15.228Z,81.56
2023-02-01T15:01:51.560Z,81.43
2023-02-01T15:04:22.836Z,81.65
2023-02-01T15:06:58.494Z,81.53
2023-02-01T15:09:33.325Z,81.66
2023-02-01T15:12:05.566Z,81.43
2023-02-01T15:15:17.548Z,81.50
2023-02-01T15:17:56.620Z,81.56
2023-02-01T15:20:31.281Z,81.80
2023-02-01T15:23:00.601Z,81.65
2023-02-01T15:25:32.092Z,81.86
2023-02-01T15:27:59.870Z,81.82
2023-02-01T15:30:33.173Z,82.35
2023-02-01T15:36:11.365Z,82.66
2023-02-01T15:38:44.086Z,82.77
2023-02-01T15:44:38.335Z,82.96
2023-02-01T15:47:19.494Z,82.83
2023-02-01T15:50:01.724Z,82.95
2023-02-01T15:52:38.338Z,82.77
2023-02-01T15:55:18.582Z,82.78
2023-02-01T15:57:47.206Z,82.85
2023-02-01T16:00:37.314Z,82.69
2023-02-01T16:03:07.117Z,82.90
2023-02-01T16:05:39.566Z,82.74
2023-02-01T16:08:18.519Z,83.00
2023-02-01T16:10:48.306Z,82.90
2023-02-01T16:13:18.124Z,83.06
2023-02-01T16:15:46.063Z,82.95
2023-02-01T16:18:17.677Z,83.07
2023-02-01T16:20:48.702Z,82.92
2023-02-01T16:23:16.632Z,83.12
2023-02-01T16:25:44.596Z,83.12
2023-02-01T16:28:13.111Z,83.16
2023-02-01T16:30:40.971Z,83.14
2023-02-01T16:33:18.827Z,83.22
2023-02-01T16:35:46.566Z,83.36
2023-02-01T16:38:19.577Z,83.46
2023-02-01T16:40:48.546Z,83.47
2023-02-01T16:43:19.454Z,83.38
2023-02-01T16:45:49.903Z,83.47
2023-02-01T16:48:27.294Z,83.57
2023-02-01T16:50:58.187Z,83.79
2023-02-01T16:53:27.052Z,83.48
2023-02-01T16:55:55.947Z,83.58
2023-02-01T16:58:26.268Z,83.49
2023-02-01T17:00:55.036Z,83.43
2023-02-01T17:03:23.359Z,83.59
2023-02-01T17:05:54.179Z,83.43
2023-02-01T17:08:33.191Z,83.57
2023-02-01T17:11:03.969Z,83.42
2023-02-01T17:13:32.914Z,83.33
2023-02-01T17:16:04.870Z,83.36
2023-02-01T17:18:35.892Z,83.47
2023-02-01T17:21:05.685Z,83.35
2023-02-01T17:23:34.494Z,83.38
2023-02-01T17:26:03.485Z,83.40
2023-02-01T17:28:31.433Z,83.44
2023-02-01T17:30:59.348Z,83.28
2023-02-01T17:33:36.936Z,83.27
2023-02-01T17:36:07.214Z,83.31
2023-02-01T17:38:35.585Z,83.34
2023-02-01T17:41:04.730Z,83.31
2023-02-01T17:43:32.595Z,83.20
2023-02-01T17:46:12.943Z,82.93
2023-02-01T17:48:41.891Z,83.01
2023-02-01T17:51:21.825Z,82.78
2023-02-01T17:53:50.393Z,82.66
2023-02-01T17:56:21.405Z,82.81
2023-02-01T17:58:49.724Z,82.49
2023-02-01T18:01:24.305Z,82.60
2023-02-01T18:03:53.457Z,82.59
2023-02-01T18:06:30.865Z,82.41
2023-02-01T18:08:58.836Z,82.46
2023-02-01T18:11:26.880Z,82.30
2023-02-01T18:13:55.222Z,82.16
2023-02-01T18:16:26.633Z,82.05
2023-02-01T18:18:55.199Z,82.06
2023-02-01T18:21:24.273Z,81.92
2023-02-01T18:23:52.650Z,81.98
2023-02-01T18:26:21.461Z,81.93
2023-02-01T18:28:49.812Z,82.15
2023-02-01T18:31:25.593Z,82.22
2023-02-01T18:33:55.833Z,82.39
2023-02-01T18:36:24.529Z,82.63
2023-02-01T18:38:56.676Z,82.58
2023-02-01T18:41:26.570Z,82.60
2023-02-01T18:43:56.239Z,82.71
2023-02-01T18:46:24.979Z,82.50
2023-02-01T18:48:53.204Z,82.68
2023-02-01T18:51:24.749Z,82.60
2023-02-01T18:53:52.963Z,82.56
2023-02-01T18:56:21.136Z,82.89
2023-02-01T18:58:49.299Z,83.13
2023-02-01T19:01:21.402Z,83.28
2023-02-01T19:03:51.289Z,83.43
2023-02-01T19:06:27.117Z,83.93
2023-02-01T19:08:56.265Z,84.10
2023-02-01T19:11:24.690Z,84.16
2023-02-01T19:13:52.653Z,84.40
2023-02-01T19:16:20.993Z,84.41
2023-02-01T19:18:52.948Z,84.78
2023-02-01T19:21:21.161Z,84.43
2023-02-01T19:23:49.218Z,84.67
2023-02-01T19:26:18.624Z,84.66
2023-02-01T19:28:48.246Z,84.58
2023-02-01T19:31:17.012Z,84.74
2023-02-01T19:33:45.318Z,84.57
2023-02-01T19:36:13.330Z,85.00
2023-02-01T19:38:41.607Z,84.74
2023-02-01T19:41:09.778Z,84.68
2023-02-01T19:43:41.181Z,84.47
2023-02-01T19:46:13.689Z,84.55
2023-02-01T19:48:41.960Z,84.49
2023-02-01T19:51:22.534Z,84.35
2023-02-01T19:53:50.876Z,84.22
2023-02-01T19:56:18.952Z,84.08
2023-02-01T19:58:46.779Z,84.02
2023-02-01T20:01:15.454Z,84.11
2023-02-01T20:03:46.697Z,83.92
2023-02-01T20:06:14.540Z,84.22
2023-02-01T20:08:42.648Z,84.02
2023-02-01T20:11:10.772Z,83.77
2023-02-01T20:13:38.805Z,83.86
2023-02-01T20:16:06.772Z,83.71
2023-02-01T20:18:36.611Z,83.83
2023-02-01T20:21:05.373Z,83.72
2023-02-01T20:23:34.866Z,83.97
2023-02-01T20:26:05.405Z,83.68
2023-02-01T20:28:35.160Z,83.75
2023-02-01T20:31:03.258Z,83.70
2023-02-01T20:33:32.385Z,83.83
2023-02-01T20:36:00.388Z,83.60
2023-02-01T20:38:29.365Z,83.70
2023-02-01T20:41:07.760Z,83.54
2023-02-01T20:43:38.998Z,83.61
2023-02-01T20:46:11.770Z,83.73
2023-02-01T20:48:46.785Z,83.65
2023-02-01T20:51:22.374Z,83.78
2023-02-01T20:53:56.037Z,83.64
2023-02-01T20:56:25.853Z,83.59
2023-02-01T20:59:03.424Z,83.66
2023-02-01T21:01:31.909Z,83.60
2023-02-01T21:03:59.972Z,83.72
2023-02-01T21:06:27.961Z,83.79
2023-02-01T21:08:55.799Z,83.86
2023-02-01T21:11:23.680Z,83.80
2023-02-01T21:13:52.062Z,83.79
2023-02-01T21:16:22.042Z,83.88
2023-02-01T21:18:53.831Z,83.85
2023-02-01T21:21:21.594Z,83.98
2023-02-01T21:23:49.612Z,83.91
2023-02-01T21:26:23.205Z,83.88
2023-02-01T21:28:53.679Z,83.87
2023-02-01T21:31:25.692Z,84.10
2023-02-01T21:33:53.741Z,83.90
2023-02-01T21:36:21.599Z,84.02
2023-02-01T21:38:52.438Z,84.13
2023-02-01T21:41:42.152Z,83.93
2023-02-01T21:44:11.409Z,84.10
2023-02-01T21:46:39.416Z,84.10
2023-02-01T21:49:07.516Z,84.18
2023-02-01T21:51:38.265Z,84.21
2023-02-01T21:54:08.791Z,84.35
2023-02-01T21:56:37.706Z,84.33
2023-02-01T21:59:05.990Z,84.34
2023-02-01T22:01:33.766Z,84.40
2023-02-01T22:04:02.037Z,84.28
2023-02-01T22:06:36.061Z,84.36
2023-02-01T22:09:05.291Z,84.55
2023-02-01T22:11:33.833Z,84.50
2023-02-01T22:14:01.975Z,84.63
2023-02-01T22:16:31.602Z,84.74
2023-02-01T22:18:59.618Z,84.97
2023-02-01T22:21:28.051Z,85.04
2023-02-01T22:23:59.262Z,85.16
2023-02-01T22:26:28.089Z,85.36
2023-02-01T22:28:56.371Z,85.42
2023-02-01T22:31:24.204Z,85.78
2023-02-01T22:33:52.047Z,85.74
2023-02-01T22:36:20.481Z,86.23
2023-02-01T22:38:52.972Z,85.86
2023-02-01T22:41:24.415Z,85.89
2023-02-01T22:43:53.280Z,85.89
2023-02-01T22:46:25.534Z,86.19
2023-02-01T22:48:53.649Z,86.29
2023-02-01T22:51:24.335Z,86.33
2023-02-01T22:53:57.046Z,86.50
2023-02-01T22:56:36.678Z,86.45
2023-02-01T22:59:07.628Z,86.69
2023-02-01T23:01:35.927Z,86.43
2023-02-01T23:04:07.449Z,86.61
2023-02-01T23:06:35.211Z,86.95
2023-02-01T23:09:13.844Z,87.00
2023-02-01T23:11:42.405Z,87.44
2023-02-01T23:14:12.625Z,87.76
2023-02-01T23:16:41.433Z,87.84
2023-02-01T23:19:09.385Z,88.19
2023-02-01T23:21:37.648Z,88.47
2023-02-01T23:24:07.834Z,88.01
2023-02-01T23:26:35.663Z,88.38
2023-02-01T23:29:04.131Z,88.50
2023-02-01T23:31:34.527Z,88.23
2023-02-01T23:34:04.142Z,88.49
2023-02-01T23:36:33.718Z,88.47
2023-02-01T23:39:02.435Z,88.47
2023-02-01T23:41:31.842Z,88.87
2023-02-01T23:44:00.009Z,88.77
2023-02-01T23:46:38.479Z,88.75
2023-02-01T23:49:08.892Z,89.03
2023-02-01T23:51:37.644Z,89.04
2023-02-01T23:54:07.286Z,88.87
2023-02-01T23:56:41.458Z,88.97
2023-02-01T23:59:20.714Z,89.11
